Time;durP1;ratioP1;P1;durP2;ratioP2;P2;SDS_P1;SDS_P2;PMS_P1;PMS_P2;Temp;Humidity;BMP_temperature;BMP_pressure;BME280_temperature;BME280_humidity;BME280_pressure;Samples;Min_cycle;Max_cycle;Signal;HPM_P1;HPM_P2
2023/04/30 00:00:56;;;;;;;2.45;2.13;;;17.80;46.90;;;;;;5063476;28;20017;-75
2023/04/30 00:03:23;;;;;;;3.90;2.55;;;17.90;47.00;;;;;;5060157;28;20042;-75
2023/04/30 00:05:52;;;;;;;3.88;3.00;;;17.90;47.00;;;;;;5061776;28;20023;-76
2023/04/30 00:08:18;;;;;;;3.20;2.90;;;17.80;46.80;;;;;;5063040;28;20027;-75
2023/04/30 00:10:44;;;;;;;3.58;2.65;;;17.80;46.80;;;;;;5061585;28;20025;-75
2023/04/30 00:13:12;;;;;;;4.40;3.40;;;17.80;46.90;;;;;;5061558;28;20138;-76
2023/04/30 00:15:38;;;;;;;4.28;2.97;;;17.70;46.90;;;;;;5062907;28;20020;-75
2023/04/30 00:18:05;;;;;;;6.25;3.75;;;17.70;47.60;;;;;;5061353;28;20035;-75
2023/04/30 00:20:33;;;;;;;3.85;3.03;;;17.60;47.00;;;;;;5061235;28;20043;-76
2023/04/30 00:22:58;;;;;;;4.18;3.47;;;17.60;47.20;;;;;;5060753;28;20032;-75
2023/04/30 00:25:24;;;;;;;4.32;3.20;;;17.50;47.30;;;;;;5062220;28;20037;-75
2023/04/30 00:27:50;;;;;;;4.35;3.35;;;17.50;47.30;;;;;;5062111;28;20056;-76
2023/04/30 00:30:16;;;;;;;4.03;2.60;;;17.40;47.30;;;;;;5060773;28;20592;-76
2023/04/30 00:32:41;;;;;;;3.65;3.10;;;17.40;47.60;;;;;;5062616;28;20060;-76
2023/04/30 00:35:07;;;;;;;3.67;2.83;;;17.40;47.60;;;;;;5059478;28;20034;-77
2023/04/30 00:37:33;;;;;;;3.85;2.75;;;17.40;47.60;;;;;;5062472;28;20127;-77
2023/04/30 00:39:59;;;;;;;4.60;3.17;;;17.40;47.80;;;;;;5060600;28;20017;-77
2023/04/30 00:42:25;;;;;;;3.55;2.75;;;17.40;47.30;;;;;;5062073;28;20013;-76
2023/04/30 00:44:51;;;;;;;5.43;3.53;;;17.30;47.60;;;;;;5062101;28;20071;-75
2023/04/30 00:47:17;;;;;;;3.97;3.25;;;17.30;47.50;;;;;;5059264;28;20044;-76
2023/04/30 00:49:43;;;;;;;3.70;3.10;;;17.30;47.40;;;;;;5062242;28;20471;-76
2023/04/30 00:52:08;;;;;;;4.30;2.95;;;17.30;47.60;;;;;;5061071;28;20025;-75
2023/04/30 00:54:35;;;;;;;3.75;3.05;;;17.20;47.50;;;;;;5060708;28;20107;-76
2023/04/30 00:57:04;;;;;;;5.65;4.05;;;17.20;47.50;;;;;;5062796;28;20013;-76
2023/04/30 00:59:31;;;;;;;4.88;3.50;;;17.20;47.50;;;;;;5067079;28;20023;-76
2023/04/30 01:01:56;;;;;;;3.15;2.83;;;17.10;47.50;;;;;;5064322;28;20013;-76
2023/04/30 01:04:23;;;;;;;5.65;3.28;;;17.10;47.70;;;;;;5064358;28;20108;-76
2023/04/30 01:06:48;;;;;;;5.72;3.58;;;17.10;47.80;;;;;;5063868;28;20027;-76
2023/04/30 01:09:15;;;;;;;3.95;3.28;;;17.10;47.80;;;;;;5066277;28;20029;-75
2023/04/30 01:11:56;;;;;;;5.38;3.75;;;17.10;47.90;;;;;;5063016;28;20021;-77
2023/04/30 01:14:29;;;;;;;5.03;3.67;;;17.10;47.90;;;;;;5064356;28;20405;-75
2023/04/30 01:17:31;;;;;;;4.35;3.25;;;17.10;47.80;;;;;;5064312;28;20021;-76
2023/04/30 01:19:57;;;;;;;3.88;3.42;;;17.10;47.90;;;;;;5055040;28;20028;-75
2023/04/30 01:22:26;;;;;;;5.38;3.72;;;17.10;48.00;;;;;;5062214;28;20470;-76
2023/04/30 01:25:39;;;;;;;4.55;3.70;;;17.10;48.00;;;;;;5064102;28;20139;-76
2023/04/30 01:28:11;;;;;;;5.05;4.10;;;17.00;48.00;;;;;;5043163;28;20370;-75
2023/04/30 01:30:39;;;;;;;4.93;3.83;;;17.00;48.10;;;;;;5065893;28;20537;-76
2023/04/30 01:33:05;;;;;;;5.70;3.97;;;17.00;48.20;;;;;;5064664;28;20021;-77
2023/04/30 01:35:31;;;;;;;6.35;3.97;;;17.00;48.40;;;;;;5064430;28;20505;-76
2023/04/30 01:38:14;;;;;;;5.53;3.78;;;17.00;48.50;;;;;;5065732;28;20016;-76
2023/04/30 01:40:49;;;;;;;4.50;3.55;;;17.00;48.40;;;;;;5065805;28;20017;-76
2023/04/30 01:43:31;;;;;;;4.60;3.90;;;17.00;48.60;;;;;;5065715;28;20044;-75
2023/04/30 01:46:19;;;;;;;4.75;3.42;;;16.90;48.50;;;;;;5065746;28;20028;-75
2023/04/30 01:49:18;;;;;;;4.35;3.50;;;16.90;48.60;;;;;;5064090;28;20024;-75
2023/04/30 01:51:46;;;;;;;5.05;3.92;;;16.90;48.60;;;;;;5063804;28;20078;-77
2023/04/30 01:54:37;;;;;;;3.88;2.88;;;16.90;48.60;;;;;;5063924;28;20503;-77
2023/04/30 01:57:06;;;;;;;4.85;3.17;;;16.80;49.10;;;;;;5063855;28;20025;-75
2023/04/30 01:59:37;;;;;;;6.78;3.67;;;16.90;49.10;;;;;;5065883;28;20363;-76
2023/04/30 02:02:03;;;;;;;6.03;4.40;;;16.90;49.10;;;;;;5063563;28;20056;-77
2023/04/30 02:04:28;;;;;;;4.40;3.97;;;16.80;48.90;;;;;;5064172;28;20063;-76
2023/04/30 02:06:54;;;;;;;5.00;4.40;;;16.80;49.10;;;;;;5064748;28;20378;-76
2023/04/30 02:09:22;;;;;;;8.45;5.28;;;16.80;49.10;;;;;;5063398;28;20028;-76
2023/04/30 02:11:48;;;;;;;6.05;4.55;;;16.80;48.90;;;;;;5062886;28;20021;-76
2023/04/30 02:14:14;;;;;;;5.32;4.40;;;16.70;48.90;;;;;;5063782;28;20474;-76
2023/04/30 02:16:40;;;;;;;6.85;4.80;;;16.70;49.10;;;;;;5062981;28;20075;-76
2023/04/30 02:19:06;;;;;;;6.30;4.55;;;16.60;49.20;;;;;;5064312;28;20197;-76
2023/04/30 02:21:31;;;;;;;6.35;4.43;;;16.60;49.20;;;;;;5063680;28;20386;-75
2023/04/30 02:23:57;;;;;;;6.35;4.93;;;16.60;49.20;;;;;;5053927;28;20051;-76
2023/04/30 02:26:23;;;;;;;7.80;4.82;;;16.60;49.30;;;;;;5054273;28;20071;-77
2023/04/30 02:28:49;;;;;;;5.60;4.38;;;16.50;49.30;;;;;;5055293;28;20029;-76
2023/04/30 02:31:14;;;;;;;5.93;4.85;;;16.60;49.40;;;;;;5055179;28;20025;-77
2023/04/30 02:33:40;;;;;;;5.28;4.25;;;16.50;49.40;;;;;;5055342;28;20021;-75
2023/04/30 02:36:06;;;;;;;5.20;4.28;;;16.50;49.40;;;;;;5053793;28;20032;-75
2023/04/30 02:38:32;;;;;;;6.40;4.63;;;16.50;49.40;;;;;;5053707;28;20382;-76
2023/04/30 02:40:58;;;;;;;8.48;4.22;;;16.50;49.40;;;;;;5055040;28;20100;-76
2023/04/30 02:43:24;;;;;;;5.95;4.32;;;16.50;49.40;;;;;;5054972;28;20092;-76
2023/04/30 02:45:49;;;;;;;5.32;4.07;;;16.50;49.30;;;;;;5055212;28;20060;-77
2023/04/30 02:48:15;;;;;;;5.00;4.30;;;16.50;49.40;;;;;;5053472;28;20032;-75
2023/04/30 02:50:41;;;;;;;7.32;4.63;;;16.50;49.40;;;;;;5054688;28;20391;-76
2023/04/30 02:53:07;;;;;;;7.60;4.43;;;16.60;49.60;;;;;;5055340;28;20044;-76
2023/04/30 02:55:32;;;;;;;8.07;4.43;;;16.50;49.40;;;;;;5053454;28;20032;-76
2023/04/30 02:57:58;;;;;;;5.85;4.88;;;16.50;49.30;;;;;;5068562;28;20029;-75
2023/04/30 03:00:24;;;;;;;7.40;4.57;;;16.50;49.40;;;;;;5073350;28;20154;-75
2023/04/30 03:02:50;;;;;;;6.07;4.60;;;16.50;49.50;;;;;;5074543;28;20016;-77
2023/04/30 03:05:15;;;;;;;7.78;4.50;;;16.50;49.70;;;;;;5073225;28;20477;-77
2023/04/30 03:07:41;;;;;;;4.65;3.92;;;16.50;49.70;;;;;;5074688;28;20096;-75
2023/04/30 03:10:08;;;;;;;6.28;4.47;;;16.50;49.80;;;;;;5074401;28;20023;-76
2023/04/30 03:12:35;;;;;;;5.05;4.10;;;16.50;49.70;;;;;;5073058;28;20089;-76
2023/04/30 03:15:01;;;;;;;7.47;3.72;;;16.50;49.80;;;;;;5074334;28;20028;-75
2023/04/30 03:17:26;;;;;;;4.53;3.40;;;16.50;49.90;;;;;;5074290;28;20377;-76
2023/04/30 03:19:52;;;;;;;5.13;4.07;;;16.60;50.20;;;;;;5071715;28;20056;-76
2023/04/30 03:22:19;;;;;;;4.40;3.92;;;16.60;49.90;;;;;;5054161;28;20033;-76
2023/04/30 03:24:45;;;;;;;5.75;4.47;;;16.60;49.60;;;;;;5054038;28;20047;-76
2023/04/30 03:27:11;;;;;;;7.10;4.32;;;16.60;49.60;;;;;;5054162;28;20021;-75
2023/04/30 03:29:37;;;;;;;6.60;4.50;;;16.60;49.60;;;;;;5054116;28;20109;-76
2023/04/30 03:32:03;;;;;;;5.07;4.18;;;16.60;49.70;;;;;;5054289;28;20501;-75
2023/04/30 03:34:30;;;;;;;5.32;4.15;;;16.60;49.70;;;;;;5054245;28;20021;-76
2023/04/30 03:36:56;;;;;;;5.47;4.20;;;16.60;49.60;;;;;;5054038;28;20104;-75
2023/04/30 03:39:22;;;;;;;6.35;4.35;;;16.60;49.70;;;;;;5052560;28;20112;-76
2023/04/30 03:41:47;;;;;;;5.45;4.13;;;16.60;49.70;;;;;;5053916;28;20416;-76
2023/04/30 03:44:14;;;;;;;6.95;4.32;;;16.60;49.80;;;;;;5052564;28;20021;-74
2023/04/30 03:46:43;;;;;;;8.18;4.88;;;16.50;49.50;;;;;;5053702;28;20021;-77
2023/04/30 03:49:09;;;;;;;6.35;3.78;;;16.50;49.50;;;;;;5053754;28;20078;-76
2023/04/30 03:51:40;;;;;;;5.40;3.90;;;16.50;50.10;;;;;;5053534;28;20474;-75
2023/04/30 03:54:07;;;;;;;4.03;3.00;;;16.50;50.20;;;;;;5053736;28;20029;-76
2023/04/30 03:56:36;;;;;;;4.93;4.40;;;16.60;50.10;;;;;;5067257;28;20021;-75
2023/04/30 03:59:02;;;;;;;5.90;3.45;;;16.60;49.60;;;;;;5072910;28;20055;-76
2023/04/30 04:01:31;;;;;;;3.75;3.13;;;16.60;50.10;;;;;;5072354;28;20121;-75
2023/04/30 04:03:57;;;;;;;3.95;3.55;;;16.60;50.10;;;;;;5073635;28;20021;-75
2023/04/30 04:06:23;;;;;;;4.75;3.90;;;16.70;50.40;;;;;;5073827;28;20021;-76
2023/04/30 04:08:49;;;;;;;4.32;2.92;;;16.70;50.30;;;;;;5072279;28;20020;-75
2023/04/30 04:11:14;;;;;;;4.95;3.40;;;16.70;50.20;;;;;;5073794;28;20036;-76
2023/04/30 04:13:40;;;;;;;5.50;3.72;;;16.70;50.10;;;;;;5068423;28;20036;-77
2023/04/30 04:16:07;;;;;;;5.35;4.07;;;16.70;50.20;;;;;;5061233;28;20028;-77
2023/04/30 04:18:33;;;;;;;3.83;3.28;;;16.70;50.40;;;;;;5061500;28;20376;-75
2023/04/30 04:21:00;;;;;;;5.47;4.18;;;16.80;50.40;;;;;;5061730;28;20128;-75
2023/04/30 04:23:26;;;;;;;4.75;3.25;;;16.70;50.30;;;;;;5060929;28;20458;-75
2023/04/30 04:25:52;;;;;;;5.93;3.60;;;16.80;50.50;;;;;;5061635;28;20024;-76
2023/04/30 04:28:18;;;;;;;6.13;3.58;;;16.80;50.40;;;;;;5061733;28;20046;-76
2023/04/30 04:30:44;;;;;;;4.22;3.08;;;16.80;50.20;;;;;;5064107;28;20078;-76
2023/04/30 04:33:10;;;;;;;4.82;4.03;;;16.80;50.00;;;;;;5067400;28;20029;-76
2023/04/30 04:35:36;;;;;;;4.63;3.22;;;16.80;49.90;;;;;;5069097;28;20020;-76
2023/04/30 04:38:03;;;;;;;3.45;3.03;;;16.90;49.80;;;;;;5078840;28;20104;-77
2023/04/30 04:40:29;;;;;;;3.88;3.35;;;16.90;49.80;;;;;;5078967;28;20444;-77
2023/04/30 04:42:55;;;;;;;4.25;3.25;;;16.90;49.70;;;;;;5077655;28;20077;-76
2023/04/30 04:45:21;;;;;;;6.25;3.63;;;17.00;49.90;;;;;;5078968;28;20086;-76
2023/04/30 04:47:47;;;;;;;4.43;3.38;;;17.00;50.20;;;;;;5078820;28;20025;-76
2023/04/30 04:50:13;;;;;;;6.13;3.53;;;17.00;50.30;;;;;;5077931;28;20543;-76
2023/04/30 04:52:39;;;;;;;4.70;3.80;;;17.00;50.20;;;;;;5078828;28;20021;-75
2023/04/30 04:55:06;;;;;;;6.10;3.95;;;17.10;49.80;;;;;;5077398;28;20054;-77
2023/04/30 04:57:32;;;;;;;5.18;3.75;;;17.10;49.60;;;;;;5078792;28;20032;-77
2023/04/30 04:59:57;;;;;;;6.85;4.05;;;17.20;49.50;;;;;;5077451;28;20028;-76
2023/04/30 05:02:23;;;;;;;5.80;3.97;;;17.20;49.30;;;;;;5074236;28;20103;-75
2023/04/30 05:04:49;;;;;;;12.60;6.22;;;17.30;49.40;;;;;;5078703;28;20495;-75
2023/04/30 05:07:18;;;;;;;10.13;5.70;;;17.30;49.10;;;;;;5077368;28;20108;-76
2023/04/30 05:09:45;;;;;;;6.65;4.50;;;17.30;49.00;;;;;;5078583;28;20024;-75
2023/04/30 05:12:12;;;;;;;5.18;4.00;;;17.40;49.10;;;;;;5078604;28;20025;-75
2023/04/30 05:14:38;;;;;;;4.97;4.38;;;17.50;49.20;;;;;;5078593;28;20075;-76
2023/04/30 05:17:04;;;;;;;7.63;5.43;;;17.50;49.10;;;;;;5079285;28;20016;-75
2023/04/30 05:19:29;;;;;;;5.68;4.40;;;17.60;48.90;;;;;;5078538;28;20111;-77
2023/04/30 05:21:55;;;;;;;9.05;4.63;;;17.60;49.00;;;;;;5062980;28;20029;-76
2023/04/30 05:24:21;;;;;;;6.20;5.00;;;17.70;48.80;;;;;;5059219;28;20120;-75
2023/04/30 05:26:47;;;;;;;7.97;5.47;;;17.70;48.40;;;;;;5059754;28;20023;-76
2023/04/30 05:29:12;;;;;;;7.32;5.45;;;17.70;48.30;;;;;;5059404;28;20485;-75
2023/04/30 05:31:38;;;;;;;7.18;5.13;;;17.70;48.40;;;;;;5059363;28;20029;-76
2023/04/30 05:34:04;;;;;;;5.63;4.55;;;17.80;48.50;;;;;;5059361;28;20075;-77
2023/04/30 05:36:31;;;;;;;7.20;4.88;;;17.80;48.60;;;;;;5059536;28;20028;-77
2023/04/30 05:38:56;;;;;;;8.15;5.65;;;17.90;48.80;;;;;;5068911;28;20051;-77
2023/04/30 05:41:23;;;;;;;5.25;4.32;;;17.90;48.30;;;;;;5063991;28;20028;-77
2023/04/30 05:43:49;;;;;;;5.78;4.43;;;18.00;48.30;;;;;;5057904;28;20032;-78
2023/04/30 05:46:14;;;;;;;7.22;5.32;;;18.00;48.30;;;;;;5058163;28;20017;-77
2023/04/30 05:48:40;;;;;;;8.80;5.18;;;18.10;47.90;;;;;;5058548;28;20079;-77
2023/04/30 05:51:06;;;;;;;9.27;4.93;;;18.10;47.90;;;;;;5056564;28;20032;-77
2023/04/30 05:53:32;;;;;;;7.82;5.13;;;18.20;48.00;;;;;;5069242;28;20025;-77
2023/04/30 05:55:58;;;;;;;6.68;4.63;;;18.20;47.80;;;;;;5075094;28;20032;-76
2023/04/30 05:58:24;;;;;;;6.55;4.85;;;18.20;47.70;;;;;;5075649;28;20021;-77
2023/04/30 06:00:51;;;;;;;8.13;5.03;;;18.30;48.00;;;;;;5076127;28;20031;-77
2023/04/30 06:03:18;;;;;;;8.65;4.78;;;18.40;47.80;;;;;;5075719;28;20025;-78
2023/04/30 06:05:44;;;;;;;6.70;5.38;;;18.40;48.10;;;;;;5075715;28;20028;-77
2023/04/30 06:08:10;;;;;;;7.18;5.25;;;18.40;47.90;;;;;;5074359;28;20054;-77
2023/04/30 06:10:36;;;;;;;8.48;5.57;;;18.40;47.50;;;;;;5072935;28;20025;-77
2023/04/30 06:13:02;;;;;;;6.50;5.50;;;18.50;47.70;;;;;;5055525;28;20095;-78
2023/04/30 06:15:28;;;;;;;8.68;6.00;;;18.50;47.60;;;;;;5054226;28;20471;-77
2023/04/30 06:17:54;;;;;;;6.70;5.30;;;18.50;47.60;;;;;;5055344;28;20024;-77
2023/04/30 06:20:20;;;;;;;9.35;6.60;;;18.60;47.70;;;;;;5055524;28;20021;-77
2023/04/30 06:22:45;;;;;;;8.27;6.30;;;18.60;47.20;;;;;;5055557;28;20151;-76
2023/04/30 06:25:11;;;;;;;5.57;4.68;;;18.60;47.20;;;;;;5059444;28;20056;-77
2023/04/30 06:27:37;;;;;;;9.63;6.00;;;18.70;47.50;;;;;;5075300;28;20086;-77
2023/04/30 06:30:03;;;;;;;10.57;7.03;;;18.80;47.70;;;;;;5075229;28;20025;-77
2023/04/30 06:32:29;;;;;;;7.32;5.63;;;18.80;46.60;;;;;;5075453;28;20028;-76
2023/04/30 06:34:55;;;;;;;11.27;7.65;;;18.80;46.70;;;;;;5075176;28;20423;-77
2023/04/30 06:37:21;;;;;;;9.27;6.35;;;18.80;46.30;;;;;;5075630;28;20103;-76
2023/04/30 06:39:46;;;;;;;7.88;6.80;;;18.70;46.40;;;;;;5069322;28;20031;-76
2023/04/30 06:42:12;;;;;;;9.18;6.03;;;18.80;46.30;;;;;;5055285;28;20392;-76
2023/04/30 06:44:38;;;;;;;8.40;6.70;;;18.80;46.40;;;;;;5054854;28;20029;-79
2023/04/30 06:47:04;;;;;;;17.50;6.38;;;18.80;46.40;;;;;;5054899;28;20025;-78
2023/04/30 06:49:30;;;;;;;9.88;6.50;;;18.90;46.10;;;;;;5053460;28;20113;-77
2023/04/30 06:51:57;;;;;;;9.40;6.35;;;18.80;46.40;;;;;;5064789;28;20051;-79
2023/04/30 06:54:25;;;;;;;7.47;5.82;;;18.90;46.50;;;;;;5073659;28;20020;-77
2023/04/30 06:56:51;;;;;;;10.13;6.82;;;18.90;46.30;;;;;;5074928;28;20024;-78
2023/04/30 06:59:17;;;;;;;9.30;6.55;;;19.00;45.90;;;;;;5074484;28;20032;-77
2023/04/30 07:01:43;;;;;;;10.55;7.25;;;19.00;45.70;;;;;;5075151;28;20086;-77
2023/04/30 07:04:08;;;;;;;13.10;6.13;;;19.10;45.30;;;;;;5074532;28;20063;-78
2023/04/30 07:06:34;;;;;;;7.03;5.65;;;19.10;45.40;;;;;;5074508;28;20024;-78
2023/04/30 07:09:01;;;;;;;7.25;5.72;;;19.20;45.40;;;;;;5074402;28;20024;-77
2023/04/30 07:11:27;;;;;;;9.30;6.03;;;19.30;45.10;;;;;;5074605;28;20024;-78
2023/04/30 07:13:52;;;;;;;8.30;5.70;;;19.40;44.40;;;;;;5074472;28;20031;-78
2023/04/30 07:16:18;;;;;;;7.03;5.35;;;19.60;44.40;;;;;;5072306;28;20032;-76
2023/04/30 07:18:47;;;;;;;8.00;5.25;;;19.70;44.40;;;;;;5062787;28;20040;-77
2023/04/30 07:21:13;;;;;;;8.40;4.78;;;19.90;44.20;;;;;;5062030;28;20104;-77
2023/04/30 07:23:39;;;;;;;8.38;5.25;;;20.00;44.40;;;;;;5061905;28;20051;-77
2023/04/30 07:26:05;;;;;;;7.38;6.05;;;20.10;43.80;;;;;;5061837;28;20024;-77
2023/04/30 07:28:31;;;;;;;6.97;5.32;;;20.30;43.10;;;;;;5074140;28;20412;-78
2023/04/30 07:30:56;;;;;;;11.68;5.75;;;20.40;43.30;;;;;;5073950;28;20048;-78
2023/04/30 07:33:22;;;;;;;9.07;5.60;;;20.40;42.20;;;;;;5065996;28;20035;-78
2023/04/30 07:35:48;;;;;;;8.88;6.47;;;20.50;42.60;;;;;;5063606;28;20028;-77
2023/04/30 07:38:16;;;;;;;7.15;5.50;;;20.50;41.80;;;;;;5061983;28;20025;-76
2023/04/30 07:40:41;;;;;;;6.82;5.13;;;20.50;42.00;;;;;;5073341;28;20039;-76
2023/04/30 07:43:07;;;;;;;11.88;7.25;;;20.60;42.40;;;;;;5072546;28;20036;-77
2023/04/30 07:45:33;;;;;;;11.82;8.75;;;20.70;42.20;;;;;;5073784;28;20092;-78
2023/04/30 07:47:59;;;;;;;9.50;7.30;;;20.80;42.60;;;;;;5072419;28;20519;-76
2023/04/30 07:50:27;;;;;;;10.38;6.72;;;20.90;41.70;;;;;;5071765;28;20434;-76
2023/04/30 07:52:53;;;;;;;8.50;5.70;;;21.00;41.40;;;;;;5053558;28;20085;-77
2023/04/30 07:55:19;;;;;;;9.40;6.93;;;21.10;40.80;;;;;;5054015;28;20017;-77
2023/04/30 07:57:44;;;;;;;8.50;6.43;;;21.10;40.20;;;;;;5053739;28;20021;-77
2023/04/30 08:00:11;;;;;;;12.50;7.95;;;21.10;41.10;;;;;;5053555;28;20066;-76
2023/04/30 08:02:37;;;;;;;8.70;6.10;;;21.30;41.10;;;;;;5059144;28;20017;-76
2023/04/30 08:05:02;;;;;;;7.00;5.45;;;21.30;40.80;;;;;;5065061;28;20025;-78
2023/04/30 08:07:28;;;;;;;8.07;6.70;;;21.40;40.10;;;;;;5072219;28;20361;-77
2023/04/30 08:09:54;;;;;;;8.85;6.63;;;21.50;40.40;;;;;;5073442;28;20021;-77
2023/04/30 08:12:20;;;;;;;8.85;6.13;;;21.50;40.60;;;;;;5073513;28;20070;-77
2023/04/30 08:14:45;;;;;;;9.35;6.78;;;21.60;40.40;;;;;;5073505;28;20028;-77
2023/04/30 08:17:11;;;;;;;7.43;5.65;;;21.70;40.00;;;;;;5073384;28;20035;-78
2023/04/30 08:19:37;;;;;;;11.00;7.05;;;21.80;39.70;;;;;;5073190;28;20028;-77
2023/04/30 08:22:03;;;;;;;10.57;5.97;;;21.80;39.10;;;;;;5059005;28;20124;-77
2023/04/30 08:24:28;;;;;;;9.32;5.80;;;21.90;39.20;;;;;;5053092;28;20049;-79
2023/04/30 08:26:54;;;;;;;8.18;6.03;;;21.90;38.90;;;;;;5052007;28;20091;-77
2023/04/30 08:29:20;;;;;;;10.60;7.05;;;22.00;39.40;;;;;;5053166;28;20016;-77
2023/04/30 08:31:46;;;;;;;12.65;7.38;;;22.10;39.00;;;;;;5053142;28;20024;-77
2023/04/30 08:34:11;;;;;;;11.70;7.00;;;22.20;38.30;;;;;;5053378;28;20029;-77
2023/04/30 08:36:37;;;;;;;10.55;6.60;;;22.20;38.30;;;;;;5053441;28;20079;-77
2023/04/30 08:39:03;;;;;;;6.72;5.50;;;22.10;37.50;;;;;;5051718;28;20029;-78
2023/04/30 08:41:35;;;;;;;10.18;5.30;;;22.00;38.30;;;;;;5052348;28;20351;-77
2023/04/30 08:44:02;;;;;;;6.68;5.35;;;21.90;38.30;;;;;;5053154;28;20029;-76
2023/04/30 08:46:30;;;;;;;5.90;5.15;;;21.90;38.50;;;;;;5052958;28;20025;-77
2023/04/30 08:48:57;;;;;;;6.63;5.28;;;21.80;38.50;;;;;;5072695;28;20538;-76
2023/04/30 08:51:24;;;;;;;5.47;4.68;;;21.80;38.70;;;;;;5073140;28;20389;-76
2023/04/30 08:53:53;;;;;;;6.03;4.80;;;21.80;38.80;;;;;;5072892;28;20046;-78
2023/04/30 08:56:20;;;;;;;7.60;5.05;;;21.80;38.90;;;;;;5072898;28;20021;-76
2023/04/30 08:58:45;;;;;;;6.03;5.15;;;21.80;38.70;;;;;;5073150;28;20052;-77
2023/04/30 09:01:12;;;;;;;6.00;4.60;;;21.90;38.50;;;;;;5072906;28;20470;-76
2023/04/30 09:03:38;;;;;;;8.30;5.18;;;22.00;38.90;;;;;;5072975;28;20027;-77
2023/04/30 09:06:04;;;;;;;6.90;4.10;;;22.20;38.30;;;;;;5071640;28;20024;-76
2023/04/30 09:08:46;;;;;;;7.63;4.88;;;22.20;37.80;;;;;;5072958;28;20055;-76
2023/04/30 09:11:24;;;;;;;4.70;3.30;;;22.30;36.90;;;;;;5072886;28;20025;-76
2023/04/30 09:13:54;;;;;;;6.47;3.83;;;22.40;37.20;;;;;;5072934;28;20096;-77
2023/04/30 09:16:20;;;;;;;10.00;3.70;;;22.50;36.50;;;;;;5072928;28;20102;-77
2023/04/30 09:18:47;;;;;;;7.57;3.58;;;22.50;34.90;;;;;;5055933;28;20079;-76
2023/04/30 09:21:13;;;;;;;4.60;3.13;;;22.60;34.60;;;;;;5062717;28;20048;-79
2023/04/30 09:24:00;;;;;;;5.85;3.58;;;22.70;35.90;;;;;;5070223;28;20049;-78
2023/04/30 09:26:35;;;;;;;5.88;4.40;;;22.70;35.70;;;;;;5075315;28;20028;-76
2023/04/30 09:29:06;;;;;;;6.88;4.38;;;22.60;33.90;;;;;;5056032;28;20472;-77
2023/04/30 09:32:06;;;;;;;5.25;4.00;;;22.40;33.60;;;;;;5056022;28;20037;-76
2023/04/30 09:34:35;;;;;;;9.07;3.60;;;22.10;34.30;;;;;;5056349;28;20531;-76
2023/04/30 09:37:01;;;;;;;5.82;3.90;;;21.90;34.20;;;;;;5056329;28;20044;-76
2023/04/30 09:39:27;;;;;;;8.90;4.35;;;21.80;34.90;;;;;;5056197;28;20025;-77
2023/04/30 09:42:09;;;;;;;8.98;4.82;;;21.70;35.10;;;;;;5056104;28;20021;-77
2023/04/30 09:44:40;;;;;;;5.97;4.32;;;21.50;35.60;;;;;;5054874;28;20051;-76
2023/04/30 09:47:19;;;;;;;5.47;3.45;;;21.50;35.90;;;;;;5059932;28;20028;-76
2023/04/30 09:49:52;;;;;;;5.60;3.63;;;21.50;35.70;;;;;;5074755;28;20024;-79
2023/04/30 09:52:19;;;;;;;3.83;3.30;;;21.50;35.80;;;;;;5076379;28;20440;-78
2023/04/30 09:54:46;;;;;;;4.47;3.58;;;21.60;36.40;;;;;;5075932;28;20529;-79
2023/04/30 09:57:14;;;;;;;6.38;3.33;;;21.70;36.60;;;;;;5076012;28;20063;-78
2023/04/30 09:59:45;;;;;;;8.98;3.50;;;21.90;35.50;;;;;;5074543;28;20104;-78
2023/04/30 10:02:13;;;;;;;3.67;2.60;;;22.00;35.30;;;;;;5076126;28;20021;-77
2023/04/30 10:04:42;;;;;;;8.80;3.40;;;22.20;35.90;;;;;;5075813;28;20068;-78
2023/04/30 10:07:20;;;;;;;3.90;2.80;;;22.40;35.60;;;;;;5075878;28;20025;-78
2023/04/30 10:09:49;;;;;;;6.15;3.17;;;22.70;35.50;;;;;;5075576;28;20020;-76
2023/04/30 10:12:22;;;;;;;3.92;2.80;;;22.90;34.70;;;;;;5074294;28;20458;-76
2023/04/30 10:14:56;;;;;;;3.88;2.78;;;23.10;34.50;;;;;;5075609;28;20496;-77
2023/04/30 10:17:27;;;;;;;7.60;3.05;;;23.30;34.70;;;;;;5067689;28;20036;-77
2023/04/30 10:20:00;;;;;;;5.05;2.85;;;23.50;33.30;;;;;;5055334;28;20024;-76
2023/04/30 10:22:28;;;;;;;7.80;2.95;;;23.60;33.80;;;;;;5054187;28;20025;-76
2023/04/30 10:24:54;;;;;;;4.28;3.00;;;23.80;33.40;;;;;;5055137;28;20068;-77
2023/04/30 10:27:20;;;;;;;4.53;2.70;;;24.00;32.60;;;;;;5055290;28;20087;-75
2023/04/30 10:29:47;;;;;;;4.38;2.75;;;24.10;30.60;;;;;;5053631;28;20025;-76
2023/04/30 10:32:14;;;;;;;3.97;2.72;;;24.00;30.00;;;;;;5053879;28;20075;-77
2023/04/30 10:35:22;;;;;;;4.47;2.60;;;23.90;30.60;;;;;;5054959;28;20029;-76
2023/04/30 10:38:08;;;;;;;4.90;3.08;;;23.80;31.70;;;;;;5033276;28;20041;-76
2023/04/30 10:40:37;;;;;;;4.85;3.10;;;23.60;30.70;;;;;;5033031;28;20033;-76
2023/04/30 10:43:03;;;;;;;3.42;2.40;;;23.50;31.60;;;;;;5033438;28;20470;-76
2023/04/30 10:45:36;;;;;;;7.80;3.53;;;23.50;31.90;;;;;;5036277;28;20071;-77
2023/04/30 10:48:03;;;;;;;6.82;4.13;;;23.50;31.50;;;;;;5040279;28;20171;-75
2023/04/30 10:50:29;;;;;;;3.90;2.65;;;23.60;31.20;;;;;;5016337;28;20498;-76
2023/04/30 10:53:05;;;;;;;2.65;2.10;;;23.70;30.80;;;;;;5041895;28;20116;-77
2023/04/30 10:55:32;;;;;;;5.32;3.03;;;23.60;29.60;;;;;;5045460;28;20036;-77
2023/04/30 10:57:58;;;;;;;3.38;3.03;;;23.50;29.30;;;;;;5046923;28;20017;-76
2023/04/30 11:00:25;;;;;;;6.28;2.90;;;23.30;29.40;;;;;;5042506;28;20568;-77
2023/04/30 11:02:55;;;;;;;4.15;2.60;;;23.20;30.10;;;;;;5040240;28;20530;-77
2023/04/30 11:05:34;;;;;;;4.25;2.50;;;23.00;30.00;;;;;;5042738;28;20029;-73
2023/04/30 11:08:00;;;;;;;3.22;2.33;;;23.00;29.60;;;;;;5050443;28;20050;-78
2023/04/30 11:10:27;;;;;;;2.50;2.08;;;22.90;29.50;;;;;;5066841;28;20016;-79
2023/04/30 11:12:55;;;;;;;6.97;3.45;;;22.80;29.80;;;;;;5064860;28;20013;-78
2023/04/30 11:15:24;;;;;;;7.40;4.70;;;22.80;30.70;;;;;;5061107;28;20016;-77
2023/04/30 11:17:54;;;;;;;5.60;2.58;;;22.90;30.70;;;;;;5066363;28;20016;-78
2023/04/30 11:20:23;;;;;;;4.10;2.60;;;23.10;30.80;;;;;;5065481;28;20021;-77
2023/04/30 11:23:11;;;;;;;3.55;1.90;;;23.10;29.00;;;;;;5064173;28;20423;-76
2023/04/30 11:25:47;;;;;;;4.28;2.05;;;23.20;29.70;;;;;;5061816;28;20037;-75
2023/04/30 11:28:19;;;;;;;3.00;1.98;;;23.30;29.50;;;;;;5061915;28;20025;-77
2023/04/30 11:30:52;;;;;;;3.70;2.13;;;23.30;29.60;;;;;;5061877;28;20096;-76
2023/04/30 11:33:19;;;;;;;3.60;2.43;;;23.40;29.70;;;;;;5065853;28;20021;-77
2023/04/30 11:35:46;;;;;;;2.42;1.88;;;23.50;29.30;;;;;;5060612;28;20279;-76
2023/04/30 11:38:14;;;;;;;2.88;2.05;;;23.50;29.80;;;;;;5061367;28;20033;-77
2023/04/30 11:40:41;;;;;;;4.53;1.95;;;23.60;29.70;;;;;;5060520;28;20091;-78
2023/04/30 11:43:07;;;;;;;2.42;1.70;;;23.70;29.60;;;;;;5063617;28;20021;-77
2023/04/30 11:45:33;;;;;;;2.58;1.95;;;23.80;29.60;;;;;;5063000;28;20032;-76
2023/04/30 11:47:59;;;;;;;2.20;1.80;;;23.90;29.60;;;;;;5060209;28;20017;-77
2023/04/30 11:50:31;;;;;;;3.75;2.20;;;24.10;29.30;;;;;;5060256;28;20179;-77
2023/04/30 11:53:02;;;;;;;3.17;2.05;;;24.20;28.70;;;;;;5060650;28;20069;-77
2023/04/30 11:55:28;;;;;;;4.18;1.92;;;24.20;28.30;;;;;;5062269;28;20032;-76
2023/04/30 11:57:58;;;;;;;4.00;1.88;;;24.30;28.50;;;;;;5061757;28;20107;-78
2023/04/30 12:00:29;;;;;;;4.30;2.40;;;24.40;28.70;;;;;;5067330;28;20029;-77
2023/04/30 12:02:58;;;;;;;2.97;2.00;;;24.40;28.30;;;;;;5072899;28;20040;-76
2023/04/30 12:05:26;;;;;;;2.60;2.03;;;24.50;28.40;;;;;;5072516;28;20021;-76
2023/04/30 12:08:08;;;;;;;4.97;2.15;;;24.50;28.20;;;;;;5059707;28;20056;-76
2023/04/30 12:10:34;;;;;;;3.17;1.52;;;24.50;27.80;;;;;;5060724;28;20063;-75
2023/04/30 12:13:01;;;;;;;4.90;1.85;;;24.60;28.40;;;;;;5060877;28;20461;-77
2023/04/30 12:15:27;;;;;;;3.92;1.80;;;24.60;28.10;;;;;;5061477;28;20074;-76
2023/04/30 12:17:58;;;;;;;2.65;2.00;;;24.70;28.00;;;;;;5059936;28;20021;-77
2023/04/30 12:20:30;;;;;;;2.50;1.63;;;24.70;27.40;;;;;;5061979;28;20116;-77
2023/04/30 12:22:57;;;;;;;3.58;1.80;;;24.70;27.70;;;;;;5061021;28;20017;-77
2023/04/30 12:25:23;;;;;;;2.60;1.98;;;24.70;27.10;;;;;;5061404;28;20029;-76
2023/04/30 12:27:53;;;;;;;4.13;1.77;;;24.80;27.40;;;;;;5061618;28;20701;-76
2023/04/30 12:30:25;;;;;;;3.33;2.03;;;24.80;27.60;;;;;;5060254;28;20108;-76
2023/04/30 12:32:53;;;;;;;3.05;1.88;;;24.90;27.60;;;;;;5059538;28;20623;-75
2023/04/30 12:35:20;;;;;;;3.83;2.25;;;25.00;27.80;;;;;;5062220;28;20047;-76
2023/04/30 12:37:51;;;;;;;3.47;2.30;;;25.10;26.40;;;;;;5063018;28;20025;-78
2023/04/30 12:40:19;;;;;;;2.97;2.00;;;25.00;26.30;;;;;;5059792;28;20112;-78
2023/04/30 12:42:45;;;;;;;2.97;1.95;;;25.00;26.90;;;;;;5063221;28;20453;-78
2023/04/30 12:45:18;;;;;;;3.08;1.83;;;25.10;27.00;;;;;;5060705;28;20541;-77
2023/04/30 12:47:44;;;;;;;3.90;1.83;;;25.20;26.80;;;;;;5060488;28;20025;-77
2023/04/30 12:50:13;;;;;;;2.05;1.70;;;25.20;26.20;;;;;;5062569;28;20358;-77